Time,TemperatureF,DewpointF,PressureIn,WindDirection,WindDirectionDegrees,WindSpeedMPH,WindSpeedGustMPH,Humidity,HourlyPrecipIn,Conditions,Clouds,dailyrainin,SoftwareType,DateUTC
2013-02-01 00:01:00,62.0,52.0,-100.00,SE,135,0.0,5.0,69,0.00,,,0.00,,2013-02-01 10:01:00,
2013-02-01 00:11:00,62.0,40.0,-100.00,NE,54,0.0,8.0,45,0.00,,,0.00,,2013-02-01 10:11:00,
2013-02-01 00:32:00,62.0,40.0,-100.00,NE,54,0.0,8.0,45,0.00,,,0.00,,2013-02-01 10:32:00,
2013-02-01 00:43:00,62.0,40.0,-100.00,NE,54,0.0,8.0,45,0.00,,,0.00,,2013-02-01 10:43:00,
2013-02-01 00:53:00,62.0,40.0,-100.00,NE,54,0.0,8.0,45,0.00,,,0.00,,2013-02-01 10:53:00,
2013-02-01 01:01:00,62.0,40.0,-100.00,NE,54,0.0,8.0,45,0.00,,,0.00,,2013-02-01 11:01:00,
2013-02-01 01:11:00,59.0,44.0,-100.00,NNE,22,0.0,4.0,58,0.00,,,0.00,,2013-02-01 11:11:00,
2013-02-01 01:32:00,59.0,44.0,-100.00,NNE,22,0.0,4.0,58,0.00,,,0.00,,2013-02-01 11:32:00,
2013-02-01 01:42:00,59.0,44.0,-100.00,NNE,22,0.0,4.0,58,0.00,,,0.00,,2013-02-01 11:42:00,
2013-02-01 01:53:00,59.0,44.0,-100.00,NNE,22,0.0,4.0,58,0.00,,,0.00,,2013-02-01 11:53:00,
2013-02-01 02:02:00,59.0,44.0,-100.00,NNE,22,0.0,4.0,58,0.00,,,0.00,,2013-02-01 12:02:00,
2013-02-01 02:11:00,61.0,37.0,-100.00,West,276,0.0,6.0,41,0.00,,,0.00,,2013-02-01 12:11:00,
2013-02-01 02:32:00,61.0,37.0,-100.00,West,276,0.0,6.0,41,0.00,,,0.00,,2013-02-01 12:32:00,
2013-02-01 02:42:00,61.0,37.0,-100.00,West,276,0.0,6.0,41,0.00,,,0.00,,2013-02-01 12:42:00,
2013-02-01 02:52:00,61.0,37.0,-100.00,West,276,0.0,6.0,41,0.00,,,0.00,,2013-02-01 12:52:00,
2013-02-01 03:02:00,61.0,37.0,-100.00,West,276,0.0,6.0,41,0.00,,,0.00,,2013-02-01 13:02:00,
2013-02-01 03:11:00,63.0,40.0,-100.00,ESE,120,5.0,16.0,43,0.00,,,-99.99,,2013-02-01 13:11:00,
2013-02-01 03:33:00,63.0,40.0,-100.00,ESE,120,5.0,16.0,43,0.00,,,-99.99,,2013-02-01 13:33:00,
2013-02-01 03:42:00,63.0,40.0,-100.00,ESE,120,5.0,16.0,43,0.00,,,-99.99,,2013-02-01 13:42:00,
2013-02-01 03:53:00,63.0,40.0,-100.00,ESE,120,5.0,16.0,43,0.00,,,-99.99,,2013-02-01 13:53:00,
2013-02-01 04:03:00,63.0,40.0,-100.00,ESE,120,5.0,16.0,43,0.00,,,-99.99,,2013-02-01 14:03:00,
2013-02-01 04:11:00,64.0,38.0,-100.00,East,100,6.0,19.0,38,0.00,,,0.00,,2013-02-01 14:11:00,
2013-02-01 04:32:00,64.0,38.0,-100.00,East,100,6.0,19.0,38,0.00,,,0.00,,2013-02-01 14:32:00,
2013-02-01 04:42:00,64.0,38.0,-100.00,East,100,6.0,19.0,38,0.00,,,0.00,,2013-02-01 14:42:00,
2013-02-01 04:52:00,64.0,38.0,-100.00,East,100,6.0,19.0,38,0.00,,,0.00,,2013-02-01 14:52:00,
2013-02-01 05:02:00,64.0,38.0,-100.00,East,100,6.0,19.0,38,0.00,,,0.00,,2013-02-01 15:02:00,
2013-02-01 05:11:00,60.0,43.0,-100.00,NW,307,0.0,13.0,54,0.00,,,0.00,,2013-02-01 15:11:00,
2013-02-01 05:33:00,60.0,43.0,-100.00,NW,307,0.0,13.0,54,0.00,,,0.00,,2013-02-01 15:33:00,
2013-02-01 05:42:00,60.0,43.0,-100.00,NW,307,0.0,13.0,54,0.00,,,0.00,,2013-02-01 15:42:00,
2013-02-01 05:52:00,60.0,43.0,-100.00,NW,307,0.0,13.0,54,0.00,,,0.00,,2013-02-01 15:52:00,
2013-02-01 06:02:00,60.0,43.0,-100.00,NW,307,0.0,13.0,54,0.00,,,0.00,,2013-02-01 16:02:00,
2013-02-01 06:11:00,57.0,52.0,-100.00,South,179,2.0,6.0,84,0.00,,,0.00,,2013-02-01 16:11:00,
2013-02-01 06:33:00,57.0,52.0,-100.00,South,179,2.0,6.0,84,0.00,,,0.00,,2013-02-01 16:33:00,
2013-02-01 06:43:00,57.0,52.0,-100.00,South,179,2.0,6.0,84,0.00,,,0.00,,2013-02-01 16:43:00,
2013-02-01 06:52:00,57.0,52.0,-100.00,South,179,2.0,6.0,84,0.00,,,0.00,,2013-02-01 16:52:00,
2013-02-01 07:02:00,57.0,52.0,-100.00,South,179,2.0,6.0,84,0.00,,,0.00,,2013-02-01 17:02:00,
2013-02-01 07:11:00,58.0,56.0,-100.00,South,170,0.0,6.0,93,0.00,,,0.00,,2013-02-01 17:11:00,
2013-02-01 07:32:00,58.0,56.0,-100.00,South,170,0.0,6.0,93,0.00,,,0.00,,2013-02-01 17:32:00,
2013-02-01 07:42:00,58.0,56.0,-100.00,South,170,0.0,6.0,93,0.00,,,0.00,,2013-02-01 17:42:00,
2013-02-01 07:53:00,58.0,56.0,-100.00,South,170,0.0,6.0,93,0.00,,,0.00,,2013-02-01 17:53:00,
2013-02-01 08:02:00,58.0,56.0,-100.00,South,170,0.0,6.0,93,0.00,,,0.00,,2013-02-01 18:02:00,
2013-02-01 08:11:00,64.0,43.0,-100.00,ESE,123,5.0,11.0,47,0.00,,,0.00,,2013-02-01 18:11:00,
2013-02-01 08:32:00,64.0,43.0,-100.00,ESE,123,5.0,11.0,47,0.00,,,0.00,,2013-02-01 18:32:00,
2013-02-01 08:42:00,64.0,43.0,-100.00,ESE,123,5.0,11.0,47,0.00,,,0.00,,2013-02-01 18:42:00,
2013-02-01 08:53:00,64.0,43.0,-100.00,ESE,123,5.0,11.0,47,0.00,,,0.00,,2013-02-01 18:53:00,
2013-02-01 09:02:00,64.0,43.0,-100.00,ESE,123,5.0,11.0,47,0.00,,,0.00,,2013-02-01 19:02:00,
2013-02-01 09:11:00,71.0,59.0,-100.00,WSW,251,1.0,7.0,65,0.00,,,0.00,,2013-02-01 19:11:00,
2013-02-01 09:42:00,71.0,59.0,-100.00,WSW,251,1.0,7.0,65,0.00,,,0.00,,2013-02-01 19:42:00,
2013-02-01 09:52:00,71.0,59.0,-100.00,WSW,251,1.0,7.0,65,0.00,,,0.00,,2013-02-01 19:52:00,
2013-02-01 10:02:00,71.0,59.0,-100.00,WSW,251,1.0,7.0,65,0.00,,,0.00,,2013-02-01 20:02:00,
2013-02-01 10:11:00,75.0,59.0,-100.00,West,277,0.0,4.0,58,0.00,,,-99.99,,2013-02-01 20:11:00,
2013-02-01 10:32:00,75.0,59.0,-100.00,West,277,0.0,4.0,58,0.00,,,-99.99,,2013-02-01 20:32:00,
2013-02-01 10:42:00,75.0,59.0,-100.00,West,277,0.0,4.0,58,0.00,,,-99.99,,2013-02-01 20:42:00,
2013-02-01 10:52:00,75.0,59.0,-100.00,West,277,0.0,4.0,58,0.00,,,-99.99,,2013-02-01 20:52:00,
2013-02-01 11:01:00,75.0,59.0,-100.00,West,277,0.0,4.0,58,0.00,,,-99.99,,2013-02-01 21:01:00,
2013-02-01 11:11:00,75.0,59.0,-100.00,WNW,286,0.0,5.0,58,0.00,,,0.00,,2013-02-01 21:11:00,
2013-02-01 11:32:00,75.0,59.0,-100.00,WNW,286,0.0,5.0,58,0.00,,,0.00,,2013-02-01 21:32:00,
2013-02-01 11:42:00,75.0,59.0,-100.00,WNW,286,0.0,5.0,58,0.00,,,0.00,,2013-02-01 21:42:00,
2013-02-01 11:52:00,75.0,59.0,-100.00,WNW,286,0.0,5.0,58,0.00,,,0.00,,2013-02-01 21:52:00,
2013-02-01 12:02:00,75.0,59.0,-100.00,WNW,286,0.0,5.0,58,0.00,,,0.00,,2013-02-01 22:02:00,
2013-02-01 12:11:00,74.0,54.0,-100.00,WSW,250,2.0,7.0,50,0.00,,,0.00,,2013-02-01 22:11:00,
2013-02-01 12:32:00,74.0,54.0,-100.00,WSW,250,2.0,7.0,50,0.00,,,0.00,,2013-02-01 22:32:00,
2013-02-01 12:42:00,74.0,54.0,-100.00,WSW,250,2.0,7.0,50,0.00,,,0.00,,2013-02-01 22:42:00,
2013-02-01 12:52:00,74.0,54.0,-100.00,WSW,250,2.0,7.0,50,0.00,,,0.00,,2013-02-01 22:52:00,
2013-02-01 13:01:00,74.0,54.0,-100.00,WSW,250,2.0,7.0,50,0.00,,,0.00,,2013-02-01 23:01:00,
2013-02-01 13:11:00,76.0,60.0,-100.00,SW,228,5.0,10.0,58,0.00,,,0.00,,2013-02-01 23:11:00,
2013-02-01 13:32:00,76.0,60.0,-100.00,SW,228,5.0,10.0,58,0.00,,,0.00,,2013-02-01 23:32:00,
2013-02-01 13:42:00,76.0,60.0,-100.00,SW,228,5.0,10.0,58,0.00,,,0.00,,2013-02-01 23:42:00,
2013-02-01 13:52:00,76.0,60.0,-100.00,SW,228,5.0,10.0,58,0.00,,,0.00,,2013-02-01 23:52:00,
2013-02-01 14:01:00,76.0,60.0,-100.00,SW,228,5.0,10.0,58,0.00,,,0.00,,2013-02-02 00:01:00,
2013-02-01 14:11:00,75.0,52.0,-100.00,WSW,249,2.0,8.0,44,0.00,,,0.00,,2013-02-02 00:11:00,
2013-02-01 14:32:00,75.0,52.0,-100.00,WSW,249,2.0,8.0,44,0.00,,,0.00,,2013-02-02 00:32:00,
2013-02-01 14:42:00,75.0,52.0,-100.00,WSW,249,2.0,8.0,44,0.00,,,0.00,,2013-02-02 00:42:00,
2013-02-01 14:52:00,75.0,52.0,-100.00,WSW,249,2.0,8.0,44,0.00,,,0.00,,2013-02-02 00:52:00,
2013-02-01 15:01:00,75.0,52.0,-100.00,WSW,249,2.0,8.0,44,0.00,,,0.00,,2013-02-02 01:01:00,
2013-02-01 15:11:00,77.0,55.0,-100.00,WSW,252,1.0,5.0,46,0.00,,,0.00,,2013-02-02 01:11:00,
2013-02-01 15:32:00,77.0,55.0,-100.00,WSW,252,1.0,5.0,46,0.00,,,0.00,,2013-02-02 01:32:00,
2013-02-01 15:42:00,77.0,55.0,-100.00,WSW,252,1.0,5.0,46,0.00,,,0.00,,2013-02-02 01:42:00,
2013-02-01 15:52:00,77.0,55.0,-100.00,WSW,252,1.0,5.0,46,0.00,,,0.00,,2013-02-02 01:52:00,
2013-02-01 16:01:00,77.0,55.0,-100.00,WSW,252,1.0,5.0,46,0.00,,,0.00,,2013-02-02 02:01:00,
2013-02-01 16:11:00,75.0,53.0,-100.00,SW,230,3.0,8.0,46,0.00,,,0.00,,2013-02-02 02:11:00,
2013-02-01 16:42:00,75.0,53.0,-100.00,SW,230,3.0,8.0,46,0.00,,,0.00,,2013-02-02 02:42:00,
2013-02-01 16:52:00,75.0,53.0,-100.00,SW,230,3.0,8.0,46,0.00,,,0.00,,2013-02-02 02:52:00,
2013-02-01 17:02:00,75.0,53.0,-100.00,SW,230,3.0,8.0,46,0.00,,,0.00,,2013-02-02 03:02:00,
2013-02-01 17:11:00,75.0,54.0,-100.00,SSW,197,4.0,8.0,48,0.00,,,-99.99,,2013-02-02 03:11:00,
2013-02-01 17:42:00,75.0,54.0,-100.00,SSW,197,4.0,8.0,48,0.00,,,-99.99,,2013-02-02 03:42:00,
2013-02-01 17:52:00,75.0,54.0,-100.00,SSW,197,4.0,8.0,48,0.00,,,-99.99,,2013-02-02 03:52:00,
2013-02-01 18:01:00,75.0,54.0,-100.00,SSW,197,4.0,8.0,48,0.00,,,-99.99,,2013-02-02 04:01:00,
2013-02-01 18:11:00,72.0,54.0,-100.00,SW,218,0.0,5.0,53,0.00,,,0.00,,2013-02-02 04:11:00,
2013-02-01 18:32:00,72.0,54.0,-100.00,SW,218,0.0,5.0,53,0.00,,,0.00,,2013-02-02 04:32:00,
2013-02-01 18:42:00,72.0,54.0,-100.00,SW,218,0.0,5.0,53,0.00,,,0.00,,2013-02-02 04:42:00,
2013-02-01 18:52:00,72.0,54.0,-100.00,SW,218,0.0,5.0,53,0.00,,,0.00,,2013-02-02 04:52:00,
2013-02-01 19:02:00,72.0,54.0,-100.00,SW,218,0.0,5.0,53,0.00,,,0.00,,2013-02-02 05:02:00,
2013-02-01 19:11:00,66.0,42.0,-100.00,East,95,1.0,8.0,42,0.00,,,0.00,,2013-02-02 05:11:00,
2013-02-01 19:33:00,66.0,42.0,-100.00,East,95,1.0,8.0,42,0.00,,,0.00,,2013-02-02 05:33:00,
2013-02-01 19:42:00,66.0,42.0,-100.00,East,95,1.0,8.0,42,0.00,,,0.00,,2013-02-02 05:42:00,
2013-02-01 19:52:00,66.0,42.0,-100.00,East,95,1.0,8.0,42,0.00,,,0.00,,2013-02-02 05:52:00,
2013-02-01 20:02:00,66.0,42.0,-100.00,East,95,1.0,8.0,42,0.00,,,0.00,,2013-02-02 06:02:00,
2013-02-01 20:11:00,63.0,35.0,-100.00,South,180,0.0,6.0,35,0.00,,,0.00,,2013-02-02 06:11:00,
2013-02-01 20:32:00,63.0,35.0,-100.00,South,180,0.0,6.0,35,0.00,,,0.00,,2013-02-02 06:32:00,
2013-02-01 20:42:00,63.0,35.0,-100.00,South,180,0.0,6.0,35,0.00,,,0.00,,2013-02-02 06:42:00,
2013-02-01 20:52:00,63.0,35.0,-100.00,South,180,0.0,6.0,35,0.00,,,0.00,,2013-02-02 06:52:00,
2013-02-01 21:02:00,63.0,35.0,-100.00,South,180,0.0,6.0,35,0.00,,,0.00,,2013-02-02 07:02:00,
2013-02-01 21:11:00,66.0,37.0,-100.00,NE,39,0.0,10.0,34,0.00,,,0.00,,2013-02-02 07:11:00,
2013-02-01 21:32:00,66.0,37.0,-100.00,NE,39,0.0,10.0,34,0.00,,,0.00,,2013-02-02 07:32:00,
2013-02-01 21:42:00,66.0,37.0,-100.00,NE,39,0.0,10.0,34,0.00,,,0.00,,2013-02-02 07:42:00,
2013-02-01 21:52:00,66.0,37.0,-100.00,NE,39,0.0,10.0,34,0.00,,,0.00,,2013-02-02 07:52:00,
2013-02-01 22:01:00,66.0,37.0,-100.00,NE,39,0.0,10.0,34,0.00,,,0.00,,2013-02-02 08:01:00,
2013-02-01 23:11:00,62.0,48.0,-100.00,SW,234,1.0,8.0,61,-99.99,,,0.00,,2013-02-02 09:11:00,
2013-02-01 23:32:00,62.0,48.0,-100.00,SW,234,1.0,8.0,61,-99.99,,,0.00,,2013-02-02 09:32:00,
2013-02-01 23:42:00,62.0,48.0,-100.00,SW,234,1.0,8.0,61,-99.99,,,0.00,,2013-02-02 09:42:00,
2013-02-01 23:52:00,62.0,48.0,-100.00,SW,234,1.0,8.0,61,-99.99,,,0.00,,2013-02-02 09:52:00,